sensor_id;sensor_type;location;lat;lon;timestamp;temperature;humidity
72770;DHT22;60893;50.848;12.072;2022-07-12T00:04:42;20.50;57.70
72770;DHT22;60893;50.848;12.072;2022-07-12T00:20:27;20.40;58.00
72770;DHT22;60893;50.848;12.072;2022-07-12T00:35:53;20.50;58.20
72770;DHT22;60893;50.848;12.072;2022-07-12T00:51:19;20.30;58.70
72770;DHT22;60893;50.848;12.072;2022-07-12T01:06:45;20.20;59.10
72770;DHT22;60893;50.848;12.072;2022-07-12T01:22:11;20.00;59.60
72770;DHT22;60893;50.848;12.072;2022-07-12T01:37:41;19.70;60.40
72770;DHT22;60893;50.848;12.072;2022-07-12T01:53:07;19.40;61.60
72770;DHT22;60893;50.848;12.072;2022-07-12T02:08:33;19.10;62.60
72770;DHT22;60893;50.848;12.072;2022-07-12T02:23:59;18.80;63.80
72770;DHT22;60893;50.848;12.072;2022-07-12T02:39:25;18.70;64.30
72770;DHT22;60893;50.848;12.072;2022-07-12T02:54:51;18.60;64.50
72770;DHT22;60893;50.848;12.072;2022-07-12T03:10:16;18.60;65.10
72770;DHT22;60893;50.848;12.072;2022-07-12T03:25:42;18.40;64.60
72770;DHT22;60893;50.848;12.072;2022-07-12T03:41:08;18.40;64.90
72770;DHT22;60893;50.848;12.072;2022-07-12T03:56:34;18.30;65.10
72770;DHT22;60893;50.848;12.072;2022-07-12T04:12:17;18.10;65.70
72770;DHT22;60893;50.848;12.072;2022-07-12T04:27:43;18.00;66.70
72770;DHT22;60893;50.848;12.072;2022-07-12T04:43:09;18.10;67.10
72770;DHT22;60893;50.848;12.072;2022-07-12T04:58:35;18.40;67.10
72770;DHT22;60893;50.848;12.072;2022-07-12T05:14:00;18.80;66.80
72770;DHT22;60893;50.848;12.072;2022-07-12T05:29:26;19.30;66.30
72770;DHT22;60893;50.848;12.072;2022-07-12T05:44:52;19.50;65.90
72770;DHT22;60893;50.848;12.072;2022-07-12T06:00:18;19.80;65.60
72770;DHT22;60893;50.848;12.072;2022-07-12T06:15:44;20.10;65.00
72770;DHT22;60893;50.848;12.072;2022-07-12T06:31:10;20.40;64.40
72770;DHT22;60893;50.848;12.072;2022-07-12T06:46:36;20.70;63.00
72770;DHT22;60893;50.848;12.072;2022-07-12T07:01:42;20.80;61.70
72770;DHT22;60893;50.848;12.072;2022-07-12T07:16:47;20.90;61.10
72770;DHT22;60893;50.848;12.072;2022-07-12T07:31:53;21.40;60.30
72770;DHT22;60893;50.848;12.072;2022-07-12T07:46:59;21.50;59.30
72770;DHT22;60893;50.848;12.072;2022-07-12T08:02:05;21.60;59.20
72770;DHT22;60893;50.848;12.072;2022-07-12T08:17:11;21.80;58.40
72770;DHT22;60893;50.848;12.072;2022-07-12T08:32:16;22.00;57.30
72770;DHT22;60893;50.848;12.072;2022-07-12T08:47:22;22.30;56.30
72770;DHT22;60893;50.848;12.072;2022-07-12T09:02:49;22.60;55.70
72770;DHT22;60893;50.848;12.072;2022-07-12T09:18:15;23.10;53.90
72770;DHT22;60893;50.848;12.072;2022-07-12T09:33:59;23.70;52.50
72770;DHT22;60893;50.848;12.072;2022-07-12T09:49:43;24.20;50.90
72770;DHT22;60893;50.848;12.072;2022-07-12T10:05:10;24.40;48.50
72770;DHT22;60893;50.848;12.072;2022-07-12T10:20:41;24.60;48.50
72770;DHT22;60893;50.848;12.072;2022-07-12T10:36:07;24.90;44.80
72770;DHT22;60893;50.848;12.072;2022-07-12T10:51:38;24.80;45.10
72770;DHT22;60893;50.848;12.072;2022-07-12T11:07:04;25.10;43.30
72770;DHT22;60893;50.848;12.072;2022-07-12T11:22:31;25.20;43.00
72770;DHT22;60893;50.848;12.072;2022-07-12T11:37:57;25.60;41.20
72770;DHT22;60893;50.848;12.072;2022-07-12T11:53:24;25.90;41.10
72770;DHT22;60893;50.848;12.072;2022-07-12T12:08:52;26.20;40.20
72770;DHT22;60893;50.848;12.072;2022-07-12T12:24:17;27.10;38.90
72770;DHT22;60893;50.848;12.072;2022-07-12T12:39:47;28.20;37.50
72770;DHT22;60893;50.848;12.072;2022-07-12T12:55:14;30.10;35.40
72770;DHT22;60893;50.848;12.072;2022-07-12T13:10:42;32.10;32.20
72770;DHT22;60893;50.848;12.072;2022-07-12T13:26:08;33.90;28.30
72770;DHT22;60893;50.848;12.072;2022-07-12T13:41:33;34.20;28.40
72770;DHT22;60893;50.848;12.072;2022-07-12T13:56:59;35.20;27.00
72770;DHT22;60893;50.848;12.072;2022-07-12T14:12:25;36.40;26.30
72770;DHT22;60893;50.848;12.072;2022-07-12T14:27:51;37.00;24.60
72770;DHT22;60893;50.848;12.072;2022-07-12T14:43:17;37.60;24.60
72770;DHT22;60893;50.848;12.072;2022-07-12T14:58:44;38.20;23.40
72770;DHT22;60893;50.848;12.072;2022-07-12T15:14:10;38.50;23.20
72770;DHT22;60893;50.848;12.072;2022-07-12T15:29:38;39.00;23.20
72770;DHT22;60893;50.848;12.072;2022-07-12T15:45:07;39.10;22.10
72770;DHT22;60893;50.848;12.072;2022-07-12T16:00:33;39.20;22.30
72770;DHT22;60893;50.848;12.072;2022-07-12T16:16:00;39.30;21.90
72770;DHT22;60893;50.848;12.072;2022-07-12T16:31:25;39.50;22.20
72770;DHT22;60893;50.848;12.072;2022-07-12T16:47:11;40.20;21.60
72770;DHT22;60893;50.848;12.072;2022-07-12T17:02:38;41.40;20.80
72770;DHT22;60893;50.848;12.072;2022-07-12T17:18:04;42.10;20.30
72770;DHT22;60893;50.848;12.072;2022-07-12T17:33:10;43.20;18.80
72770;DHT22;60893;50.848;12.072;2022-07-12T17:48:16;42.90;18.90
72770;DHT22;60893;50.848;12.072;2022-07-12T18:03:21;42.10;19.10
72770;DHT22;60893;50.848;12.072;2022-07-12T18:18:27;39.90;20.10
72770;DHT22;60893;50.848;12.072;2022-07-12T18:33:35;37.50;21.80
72770;DHT22;60893;50.848;12.072;2022-07-12T18:48:44;36.50;23.20
72770;DHT22;60893;50.848;12.072;2022-07-12T19:03:50;35.10;24.60
72770;DHT22;60893;50.848;12.072;2022-07-12T19:18:56;33.50;25.80
72770;DHT22;60893;50.848;12.072;2022-07-12T19:34:01;32.10;28.10
72770;DHT22;60893;50.848;12.072;2022-07-12T19:49:07;30.70;30.00
72770;DHT22;60893;50.848;12.072;2022-07-12T20:04:14;29.70;32.20
72770;DHT22;60893;50.848;12.072;2022-07-12T20:19:40;29.00;33.00
72770;DHT22;60893;50.848;12.072;2022-07-12T20:35:06;28.40;34.00
72770;DHT22;60893;50.848;12.072;2022-07-12T20:50:32;28.00;35.10
72770;DHT22;60893;50.848;12.072;2022-07-12T21:05:58;27.40;36.80
72770;DHT22;60893;50.848;12.072;2022-07-12T21:21:24;26.70;38.10
72770;DHT22;60893;50.848;12.072;2022-07-12T21:36:51;26.30;38.70
72770;DHT22;60893;50.848;12.072;2022-07-12T21:52:17;25.90;39.30
72770;DHT22;60893;50.848;12.072;2022-07-12T22:07:43;25.50;40.40
72770;DHT22;60893;50.848;12.072;2022-07-12T22:23:08;24.90;41.70
72770;DHT22;60893;50.848;12.072;2022-07-12T22:38:34;24.50;42.50
72770;DHT22;60893;50.848;12.072;2022-07-12T22:54:00;24.10;43.60
72770;DHT22;60893;50.848;12.072;2022-07-12T23:09:26;23.80;44.10
72770;DHT22;60893;50.848;12.072;2022-07-12T23:24:52;23.30;45.30
72770;DHT22;60893;50.848;12.072;2022-07-12T23:40:17;23.00;45.90
72770;DHT22;60893;50.848;12.072;2022-07-12T23:55:43;22.50;46.80
